Time;durP1;ratioP1;P1;durP2;ratioP2;P2;SDS_P1;SDS_P2;PMS_P1;PMS_P2;Temp;Humidity;BMP_temperature;BMP_pressure;BME280_temperature;BME280_humidity;BME280_pressure;Samples;Min_cycle;Max_cycle;Signal;HPM_P1;HPM_P2
2022/08/21 00:01:55;;;;;;;7.88;3.80;;;25.00;66.60;;;;;;5037698;28;20093;-80
2022/08/21 00:04:22;;;;;;;7.10;3.42;;;25.00;66.60;;;;;;5054471;28;20036;-81
2022/08/21 00:06:51;;;;;;;6.13;3.17;;;25.00;66.60;;;;;;5053406;28;20404;-80
2022/08/21 00:09:18;;;;;;;8.10;3.78;;;25.00;66.60;;;;;;5054233;28;20028;-81
2022/08/21 00:11:44;;;;;;;6.63;3.70;;;25.00;66.60;;;;;;5054213;28;20028;-80
2022/08/21 00:14:11;;;;;;;6.82;3.75;;;25.00;66.60;;;;;;5054160;28;20029;-80
2022/08/21 00:16:38;;;;;;;6.68;3.72;;;24.90;66.60;;;;;;5036850;28;20025;-81
2022/08/21 00:19:06;;;;;;;10.98;4.60;;;25.00;66.60;;;;;;5053933;28;20473;-81
2022/08/21 00:21:33;;;;;;;7.25;3.78;;;24.90;66.60;;;;;;5054093;28;20078;-80
2022/08/21 00:23:58;;;;;;;7.80;3.58;;;24.90;66.70;;;;;;5054050;28;20549;-81
2022/08/21 00:26:24;;;;;;;6.93;3.45;;;24.90;66.60;;;;;;5071255;28;20037;-81
2022/08/21 00:28:50;;;;;;;7.53;4.28;;;24.90;66.60;;;;;;5071785;28;20395;-81
2022/08/21 00:31:17;;;;;;;8.07;4.20;;;24.90;66.60;;;;;;5037281;28;20029;-80
2022/08/21 00:33:44;;;;;;;6.57;3.55;;;24.90;66.50;;;;;;5053727;28;20434;-81
2022/08/21 00:36:10;;;;;;;10.35;4.18;;;24.90;66.50;;;;;;5070934;28;20081;-81
2022/08/21 00:38:36;;;;;;;6.72;3.55;;;24.90;66.50;;;;;;5071653;28;20063;-81
2022/08/21 00:41:05;;;;;;;8.20;4.03;;;24.90;66.60;;;;;;5071728;28;20017;-81
2022/08/21 00:43:33;;;;;;;7.68;3.80;;;24.80;66.40;;;;;;5071562;28;20101;-81
2022/08/21 00:46:00;;;;;;;6.63;3.65;;;24.90;66.40;;;;;;5053013;28;20029;-81
2022/08/21 00:48:26;;;;;;;7.45;4.25;;;24.90;67.00;;;;;;5071541;28;20032;-80
2022/08/21 00:50:57;;;;;;;6.68;3.70;;;24.80;66.40;;;;;;5071787;28;20055;-81
2022/08/21 00:53:23;;;;;;;7.07;3.90;;;24.80;66.30;;;;;;5053719;28;20029;-81
2022/08/21 00:55:50;;;;;;;9.73;4.05;;;24.90;66.40;;;;;;5071101;28;20021;-81
2022/08/21 00:58:16;;;;;;;9.32;3.83;;;24.80;66.40;;;;;;5037263;28;20468;-81
2022/08/21 01:00:44;;;;;;;7.45;3.85;;;24.80;66.50;;;;;;5053870;28;20035;-81
2022/08/21 01:03:14;;;;;;;7.22;3.75;;;24.80;66.50;;;;;;5075375;28;20361;-81
2022/08/21 01:05:41;;;;;;;6.88;3.92;;;24.80;66.60;;;;;;5056868;28;20028;-80
2022/08/21 01:08:09;;;;;;;8.32;4.20;;;24.80;66.60;;;;;;5090874;28;20035;-81
2022/08/21 01:10:36;;;;;;;7.05;3.90;;;24.80;66.60;;;;;;5090972;28;20031;-80
2022/08/21 01:13:06;;;;;;;6.22;3.50;;;24.80;66.70;;;;;;5075226;28;20396;-81
2022/08/21 01:15:35;;;;;;;6.50;3.72;;;24.80;66.70;;;;;;5023563;28;20063;-80
2022/08/21 01:18:04;;;;;;;5.78;3.78;;;24.80;66.70;;;;;;5040555;28;20066;-81
2022/08/21 01:20:31;;;;;;;8.15;3.70;;;24.80;66.70;;;;;;5075117;28;20055;-81
2022/08/21 01:22:57;;;;;;;9.20;3.83;;;24.80;66.70;;;;;;5057196;28;20473;-81
2022/08/21 01:25:22;;;;;;;8.27;4.00;;;24.80;66.70;;;;;;5056306;28;20037;-81
2022/08/21 01:27:48;;;;;;;8.00;3.50;;;24.80;66.70;;;;;;5040653;28;20391;-81
2022/08/21 01:30:21;;;;;;;7.38;4.03;;;24.90;66.70;;;;;;5040523;28;20571;-80
2022/08/21 01:32:47;;;;;;;7.57;3.97;;;24.90;66.70;;;;;;5040333;28;20086;-81
2022/08/21 01:35:14;;;;;;;10.35;4.10;;;24.80;66.60;;;;;;5056261;28;20033;-80
2022/08/21 01:37:41;;;;;;;7.32;3.70;;;24.80;66.50;;;;;;5057271;28;20089;-81
2022/08/21 01:40:08;;;;;;;10.45;4.10;;;24.80;66.50;;;;;;5056966;28;20051;-81
2022/08/21 01:42:35;;;;;;;6.32;3.58;;;24.80;66.50;;;;;;5074646;28;20051;-81
2022/08/21 01:45:00;;;;;;;7.25;3.90;;;24.80;66.50;;;;;;5074411;28;20024;-81
2022/08/21 01:47:26;;;;;;;5.38;3.50;;;24.90;66.50;;;;;;5074053;28;20166;-80
2022/08/21 01:49:52;;;;;;;8.05;3.55;;;24.80;66.30;;;;;;5056746;28;20082;-81
2022/08/21 01:52:19;;;;;;;7.05;4.05;;;24.80;66.20;;;;;;5074475;28;20032;-80
2022/08/21 01:54:45;;;;;;;8.48;3.70;;;24.80;66.20;;;;;;5056642;28;20082;-80
2022/08/21 01:57:12;;;;;;;8.98;3.83;;;24.80;66.10;;;;;;5073618;28;20380;-80
2022/08/21 01:59:37;;;;;;;5.88;3.45;;;24.80;66.00;;;;;;5074368;28;20024;-80
2022/08/21 02:02:04;;;;;;;11.23;3.70;;;24.80;65.70;;;;;;5056473;28;20047;-80
2022/08/21 02:04:30;;;;;;;10.10;3.80;;;24.80;65.70;;;;;;5074240;28;20031;-80
2022/08/21 02:06:56;;;;;;;7.93;3.55;;;24.80;65.60;;;;;;5072403;28;20388;-80
2022/08/21 02:09:22;;;;;;;9.35;3.40;;;24.80;65.30;;;;;;5074247;28;20040;-80
2022/08/21 02:11:47;;;;;;;6.15;3.10;;;24.70;65.10;;;;;;5074163;28;20133;-79
2022/08/21 02:14:15;;;;;;;10.40;3.30;;;24.80;65.10;;;;;;5055336;28;20036;-80
2022/08/21 02:16:43;;;;;;;7.28;2.83;;;24.80;65.10;;;;;;5055602;28;20078;-79
2022/08/21 02:19:10;;;;;;;7.60;2.83;;;24.80;64.80;;;;;;5074072;28;20077;-80
2022/08/21 02:21:36;;;;;;;8.55;3.10;;;24.70;64.60;;;;;;5074046;28;20023;-80
2022/08/21 02:24:02;;;;;;;8.00;2.70;;;24.70;64.20;;;;;;5056002;28;20032;-80
2022/08/21 02:26:28;;;;;;;5.22;2.85;;;24.80;64.20;;;;;;5055344;28;20040;-80
2022/08/21 02:28:54;;;;;;;7.00;2.75;;;24.70;64.20;;;;;;5073959;28;20032;-80
2022/08/21 02:31:20;;;;;;;9.43;2.90;;;24.70;64.10;;;;;;5073816;28;20542;-81
2022/08/21 02:33:45;;;;;;;10.15;2.70;;;24.70;64.10;;;;;;5073637;28;20451;-80
2022/08/21 02:36:12;;;;;;;7.53;2.70;;;24.60;64.00;;;;;;5073029;28;20032;-80
2022/08/21 02:38:39;;;;;;;9.60;3.03;;;24.70;64.60;;;;;;5056075;28;20025;-80
2022/08/21 02:41:08;;;;;;;6.85;2.70;;;24.60;63.80;;;;;;5055758;28;20035;-80
2022/08/21 02:43:35;;;;;;;8.00;2.63;;;24.70;63.70;;;;;;5055706;28;20025;-80
2022/08/21 02:46:03;;;;;;;8.18;2.78;;;24.70;63.90;;;;;;5072674;28;20040;-80
2022/08/21 02:48:32;;;;;;;6.78;2.47;;;24.70;63.70;;;;;;5073514;28;20103;-80
2022/08/21 02:51:04;;;;;;;9.18;3.35;;;24.60;63.70;;;;;;5073389;28;20391;-80
2022/08/21 02:53:31;;;;;;;8.43;2.88;;;24.60;63.60;;;;;;5073279;28;20024;-80
2022/08/21 02:55:59;;;;;;;8.98;2.60;;;24.70;63.70;;;;;;5038365;28;20444;-80
2022/08/21 02:58:31;;;;;;;6.95;2.80;;;24.60;63.50;;;;;;5088939;28;20044;-80
2022/08/21 03:00:58;;;;;;;6.22;2.63;;;24.60;63.70;;;;;;5038725;28;20395;-81
2022/08/21 03:03:26;;;;;;;8.38;2.90;;;24.60;63.60;;;;;;5038808;28;20036;-81
2022/08/21 03:05:52;;;;;;;7.55;3.08;;;24.60;63.50;;;;;;5072252;28;20036;-80
2022/08/21 03:08:19;;;;;;;7.35;2.70;;;24.70;63.30;;;;;;5055329;28;20028;-81
2022/08/21 03:10:48;;;;;;;7.45;2.72;;;24.70;63.20;;;;;;5055197;28;20043;-81
2022/08/21 03:13:15;;;;;;;11.43;2.80;;;24.70;63.20;;;;;;5055209;28;20343;-81
2022/08/21 03:15:41;;;;;;;8.18;2.70;;;24.70;63.20;;;;;;5071986;28;20108;-81
2022/08/21 03:18:09;;;;;;;7.65;2.85;;;24.60;63.00;;;;;;5055230;28;20024;-81
2022/08/21 03:20:36;;;;;;;7.97;2.70;;;24.70;63.00;;;;;;5054887;28;20028;-82
2022/08/21 03:23:04;;;;;;;7.05;2.58;;;24.70;62.90;;;;;;5072805;28;20158;-82
2022/08/21 03:25:33;;;;;;;5.78;2.47;;;24.60;62.70;;;;;;5054009;28;20028;-81
2022/08/21 03:28:01;;;;;;;9.55;2.90;;;24.60;62.60;;;;;;5054789;28;20108;-81
2022/08/21 03:30:28;;;;;;;10.52;3.03;;;24.60;62.70;;;;;;5072613;28;20035;-81
2022/08/21 03:32:54;;;;;;;6.63;2.80;;;24.60;63.20;;;;;;5071480;28;20047;-81
2022/08/21 03:35:20;;;;;;;6.30;2.45;;;24.60;62.60;;;;;;5053668;28;20427;-81
2022/08/21 03:37:46;;;;;;;9.32;3.00;;;24.60;62.00;;;;;;5038036;28;20499;-81
2022/08/21 03:40:15;;;;;;;7.35;2.80;;;24.60;62.30;;;;;;5038641;28;20039;-81
2022/08/21 03:42:41;;;;;;;8.32;2.60;;;24.60;62.40;;;;;;5054639;28;20063;-81
2022/08/21 03:45:08;;;;;;;8.45;2.83;;;24.60;62.40;;;;;;5053669;28;20056;-80
2022/08/21 03:47:34;;;;;;;7.20;2.78;;;24.60;62.10;;;;;;5054533;28;20447;-81
2022/08/21 03:50:01;;;;;;;6.65;2.85;;;24.60;62.30;;;;;;5072261;28;20115;-80
2022/08/21 03:52:27;;;;;;;9.48;2.63;;;24.60;62.10;;;;;;5054524;28;20033;-81
2022/08/21 03:54:53;;;;;;;7.95;2.90;;;24.50;61.90;;;;;;5054404;28;20025;-80
2022/08/21 03:57:18;;;;;;;5.80;2.58;;;24.50;61.80;;;;;;5071438;28;20487;-80
2022/08/21 03:59:44;;;;;;;5.65;2.72;;;24.50;61.70;;;;;;5054879;28;20459;-80
2022/08/21 04:02:12;;;;;;;7.78;2.75;;;24.50;61.70;;;;;;5054468;28;20119;-80
2022/08/21 04:04:38;;;;;;;8.80;2.85;;;24.50;61.50;;;;;;5071981;28;20043;-80
2022/08/21 04:07:04;;;;;;;8.38;2.90;;;24.60;61.50;;;;;;5036955;28;20036;-80
2022/08/21 04:09:30;;;;;;;7.88;2.95;;;24.60;61.30;;;;;;5054229;28;20032;-80
2022/08/21 04:11:56;;;;;;;7.40;2.75;;;24.50;61.30;;;;;;5054166;28;20063;-80
2022/08/21 04:14:22;;;;;;;8.38;2.50;;;24.50;61.30;;;;;;5053933;28;20031;-80
2022/08/21 04:16:48;;;;;;;6.32;2.65;;;24.50;61.20;;;;;;5071081;28;20025;-80
2022/08/21 04:19:15;;;;;;;9.90;2.80;;;24.50;61.00;;;;;;5054195;28;20052;-80
2022/08/21 04:21:42;;;;;;;7.47;3.20;;;24.50;61.00;;;;;;5037467;28;20395;-80
2022/08/21 04:24:10;;;;;;;10.98;3.13;;;24.50;61.20;;;;;;5054081;28;20487;-80
2022/08/21 04:26:37;;;;;;;9.07;3.40;;;24.50;61.20;;;;;;5053181;28;20028;-80
2022/08/21 04:29:06;;;;;;;6.97;3.00;;;24.50;61.00;;;;;;5071794;28;20480;-80
2022/08/21 04:31:33;;;;;;;9.45;3.40;;;24.50;61.00;;;;;;5071775;28;20078;-80
2022/08/21 04:33:59;;;;;;;5.95;2.65;;;24.50;60.70;;;;;;5071558;28;20091;-80
2022/08/21 04:36:25;;;;;;;7.63;2.92;;;24.50;60.80;;;;;;5070446;28;20036;-80
2022/08/21 04:38:51;;;;;;;8.23;3.33;;;24.50;60.70;;;;;;5053983;28;20032;-80
2022/08/21 04:41:17;;;;;;;10.02;3.20;;;24.50;60.50;;;;;;5037490;28;20365;-80
2022/08/21 04:43:43;;;;;;;9.50;2.90;;;24.50;60.30;;;;;;5071664;28;20021;-80
2022/08/21 04:46:09;;;;;;;9.38;3.08;;;24.50;60.30;;;;;;5070767;28;20039;-79
2022/08/21 04:48:34;;;;;;;9.48;3.50;;;24.50;60.40;;;;;;5071638;28;20119;-80
2022/08/21 04:51:05;;;;;;;8.50;3.30;;;24.50;60.40;;;;;;5053703;28;20032;-80
2022/08/21 04:53:33;;;;;;;11.10;3.25;;;24.50;60.30;;;;;;5070402;28;20046;-83
2022/08/21 04:56:05;;;;;;;9.77;3.28;;;24.50;60.10;;;;;;5036144;28;20036;-82
2022/08/21 04:58:32;;;;;;;9.45;3.22;;;24.50;60.20;;;;;;5071526;28;20439;-83
2022/08/21 05:01:01;;;;;;;8.70;2.70;;;24.50;60.10;;;;;;5053413;28;20361;-82
2022/08/21 05:03:28;;;;;;;8.38;3.00;;;24.50;60.00;;;;;;5063353;28;20544;-82
2022/08/21 05:05:54;;;;;;;9.93;3.17;;;24.50;60.00;;;;;;5049804;28;20111;-81
2022/08/21 05:08:23;;;;;;;8.60;2.85;;;24.50;59.90;;;;;;5069355;28;20036;-81
2022/08/21 05:10:49;;;;;;;10.83;3.03;;;24.50;59.80;;;;;;5070116;28;20032;-81
2022/08/21 05:13:17;;;;;;;5.55;2.58;;;24.50;60.00;;;;;;5052755;28;21039;-81
2022/08/21 05:15:42;;;;;;;9.27;2.90;;;24.50;59.80;;;;;;5052931;28;20029;-81
2022/08/21 05:18:08;;;;;;;9.88;2.80;;;24.50;59.80;;;;;;5053495;28;20025;-81
2022/08/21 05:20:35;;;;;;;8.48;2.78;;;24.50;59.70;;;;;;5071364;28;20024;-81
2022/08/21 05:23:01;;;;;;;9.25;2.90;;;24.40;59.60;;;;;;5070082;28;20396;-81
2022/08/21 05:25:27;;;;;;;8.63;3.05;;;24.50;59.70;;;;;;5070345;28;20446;-81
2022/08/21 05:27:53;;;;;;;10.02;2.78;;;24.40;59.80;;;;;;5069771;28;20120;-80
2022/08/21 05:30:20;;;;;;;8.32;3.03;;;24.40;59.80;;;;;;5070172;28;20024;-81
2022/08/21 05:32:47;;;;;;;7.53;2.70;;;24.40;59.80;;;;;;5070295;28;20028;-80
2022/08/21 05:35:13;;;;;;;9.18;3.10;;;24.40;60.20;;;;;;5069756;28;20071;-80
2022/08/21 05:37:39;;;;;;;8.57;2.95;;;24.50;60.10;;;;;;5036443;28;20465;-80
2022/08/21 05:40:07;;;;;;;11.30;3.05;;;24.40;59.50;;;;;;5071159;28;20057;-80
2022/08/21 05:42:33;;;;;;;12.38;3.20;;;24.40;59.40;;;;;;5069723;28;20036;-81
2022/08/21 05:44:59;;;;;;;9.90;3.22;;;24.40;59.60;;;;;;5069733;28;20025;-81
2022/08/21 05:47:25;;;;;;;7.47;3.00;;;24.40;59.30;;;;;;5036067;28;20039;-81
2022/08/21 05:49:51;;;;;;;9.13;3.20;;;24.40;59.30;;;;;;5074180;28;20103;-81
2022/08/21 05:52:21;;;;;;;7.85;2.78;;;24.40;59.20;;;;;;5074467;28;20510;-81
2022/08/21 05:54:47;;;;;;;7.50;2.85;;;24.40;59.30;;;;;;5074350;28;20025;-80
2022/08/21 05:57:13;;;;;;;11.35;3.22;;;24.40;59.30;;;;;;5072595;28;20033;-81
2022/08/21 05:59:38;;;;;;;11.15;3.47;;;24.40;59.20;;;;;;5056734;28;20115;-81
2022/08/21 06:02:04;;;;;;;8.10;3.08;;;24.40;59.30;;;;;;5040085;28;20040;-80
2022/08/21 06:04:30;;;;;;;10.50;3.53;;;24.40;59.20;;;;;;5073129;28;20399;-81
2022/08/21 06:06:56;;;;;;;9.55;3.53;;;24.40;59.20;;;;;;5055746;28;20042;-81
2022/08/21 06:09:21;;;;;;;8.98;3.55;;;24.40;59.20;;;;;;5074117;28;20090;-81
2022/08/21 06:11:47;;;;;;;10.45;3.30;;;24.40;59.10;;;;;;5072955;28;20070;-81
2022/08/21 06:14:16;;;;;;;11.27;2.70;;;24.40;59.00;;;;;;5072694;28;20496;-81
2022/08/21 06:16:42;;;;;;;9.57;3.23;;;24.40;58.90;;;;;;5039177;28;20029;-81
2022/08/21 06:19:08;;;;;;;14.57;3.35;;;24.30;58.80;;;;;;5073741;28;20025;-81
2022/08/21 06:21:34;;;;;;;9.77;2.88;;;24.30;58.90;;;;;;5072990;28;20428;-81
2022/08/21 06:24:00;;;;;;;19.83;3.47;;;24.30;59.20;;;;;;5055961;28;20147;-81
2022/08/21 06:26:25;;;;;;;9.57;3.10;;;24.30;59.20;;;;;;5071923;28;20484;-81
2022/08/21 06:28:51;;;;;;;7.53;2.97;;;24.30;59.20;;;;;;5074382;28;20126;-80
2022/08/21 06:31:23;;;;;;;11.63;3.35;;;24.30;59.10;;;;;;5072844;28;20039;-81
2022/08/21 06:33:50;;;;;;;9.40;3.28;;;24.30;59.00;;;;;;5072300;28;20038;-80
2022/08/21 06:36:15;;;;;;;8.73;3.33;;;24.30;59.00;;;;;;5072932;28;20029;-80
2022/08/21 06:38:41;;;;;;;8.02;3.15;;;24.30;58.90;;;;;;5072547;28;20050;-80
2022/08/21 06:41:07;;;;;;;9.38;2.85;;;24.30;58.80;;;;;;5072630;28;20051;-80
2022/08/21 06:43:34;;;;;;;9.70;3.05;;;24.30;59.40;;;;;;5073049;28;20056;-80
2022/08/21 06:46:00;;;;;;;8.68;2.60;;;24.30;58.80;;;;;;5071638;28;20036;-80
2022/08/21 06:48:25;;;;;;;12.25;3.05;;;24.30;58.80;;;;;;5072396;28;20078;-80
2022/08/21 06:50:51;;;;;;;9.45;2.78;;;24.30;58.80;;;;;;5073479;28;20469;-80
2022/08/21 06:53:19;;;;;;;12.88;3.10;;;24.30;58.90;;;;;;5073109;28;20032;-80
2022/08/21 06:55:46;;;;;;;9.82;3.25;;;24.30;59.00;;;;;;5072476;28;20028;-80
2022/08/21 06:58:13;;;;;;;12.38;3.58;;;24.30;59.00;;;;;;5071974;28;20028;-80
2022/08/21 07:00:41;;;;;;;9.60;3.35;;;24.30;59.10;;;;;;5071787;28;20028;-80
2022/08/21 07:03:07;;;;;;;9.15;2.88;;;24.30;59.00;;;;;;5055132;28;20519;-80
2022/08/21 07:05:33;;;;;;;13.48;3.30;;;24.30;59.10;;;;;;5072315;28;20119;-80
2022/08/21 07:07:58;;;;;;;10.05;3.33;;;24.30;59.10;;;;;;5073066;28;20024;-80
2022/08/21 07:10:26;;;;;;;12.20;3.50;;;24.30;59.00;;;;;;5071675;28;20024;-80
2022/08/21 07:12:53;;;;;;;11.88;2.65;;;24.30;59.10;;;;;;5071757;28;20037;-80
2022/08/21 07:15:19;;;;;;;9.00;3.47;;;24.30;59.20;;;;;;5072104;28;20024;-80
2022/08/21 07:17:45;;;;;;;11.45;3.13;;;24.30;59.10;;;;;;5071742;28;20032;-80
2022/08/21 07:20:11;;;;;;;10.88;3.53;;;24.30;59.00;;;;;;5072811;28;20052;-80
2022/08/21 07:22:38;;;;;;;10.35;3.33;;;24.40;58.80;;;;;;5071697;28;20047;-80
2022/08/21 07:25:06;;;;;;;12.10;3.70;;;24.30;58.70;;;;;;5070992;28;20027;-80
2022/08/21 07:27:32;;;;;;;8.50;3.28;;;24.30;58.70;;;;;;5055050;28;20036;-79
2022/08/21 07:29:58;;;;;;;13.20;3.70;;;24.30;58.70;;;;;;5072589;28;20020;-79
2022/08/21 07:32:24;;;;;;;15.98;3.72;;;24.30;58.70;;;;;;5072979;28;20024;-80
2022/08/21 07:34:50;;;;;;;10.68;3.33;;;24.30;58.60;;;;;;5072228;28;20032;-79
2022/08/21 07:37:16;;;;;;;10.20;3.70;;;24.30;58.70;;;;;;5070454;28;20028;-80
2022/08/21 07:39:42;;;;;;;7.65;3.20;;;24.30;58.70;;;;;;5072516;28;20028;-80
2022/08/21 07:42:07;;;;;;;10.23;3.05;;;24.40;58.50;;;;;;5072519;28;20124;-80
2022/08/21 07:44:34;;;;;;;9.80;3.45;;;24.40;58.20;;;;;;5071095;28;20029;-80
2022/08/21 07:47:00;;;;;;;8.98;3.17;;;24.30;58.10;;;;;;5053903;28;20484;-80
2022/08/21 07:49:27;;;;;;;10.23;3.17;;;24.30;58.70;;;;;;5070923;28;20036;-80
2022/08/21 07:51:53;;;;;;;10.40;3.20;;;24.40;58.00;;;;;;5072316;28;20511;-80
2022/08/21 07:54:19;;;;;;;10.50;3.10;;;24.40;57.70;;;;;;5071603;28;20063;-80
2022/08/21 07:56:45;;;;;;;10.35;2.83;;;24.40;57.50;;;;;;5071358;28;20039;-80
2022/08/21 07:59:11;;;;;;;11.25;3.30;;;24.40;57.50;;;;;;5072233;28;20025;-80
2022/08/21 08:01:37;;;;;;;9.02;2.75;;;24.40;57.10;;;;;;5072201;28;20036;-81
2022/08/21 08:04:03;;;;;;;10.85;2.78;;;24.40;57.10;;;;;;5071871;28;20040;-80
2022/08/21 08:06:30;;;;;;;10.38;2.80;;;24.40;57.00;;;;;;5071304;28;20111;-79
2022/08/21 08:08:56;;;;;;;10.18;3.00;;;24.40;56.90;;;;;;5070742;28;20396;-80
2022/08/21 08:11:22;;;;;;;8.98;3.10;;;24.40;57.00;;;;;;5070171;28;20029;-80
2022/08/21 08:13:50;;;;;;;10.48;3.08;;;24.40;57.10;;;;;;5070610;28;20039;-80
2022/08/21 08:16:17;;;;;;;10.32;3.28;;;24.40;56.80;;;;;;5071002;28;20032;-80
2022/08/21 08:18:44;;;;;;;9.60;2.95;;;24.40;56.60;;;;;;5071803;28;20021;-80
2022/08/21 08:21:13;;;;;;;9.45;3.08;;;24.40;56.50;;;;;;5070607;28;20469;-80
2022/08/21 08:23:39;;;;;;;;;;;24.40;56.40;;;;;;5072482;28;20028;-81
2022/08/21 08:26:05;;;;;;;11.27;3.10;;;24.40;56.50;;;;;;5069785;28;19919;-81
2022/08/21 08:28:32;;;;;;;6.78;3.00;;;24.50;56.60;;;;;;5071880;28;20107;-81
2022/08/21 08:31:00;;;;;;;11.45;3.28;;;24.40;56.50;;;;;;5071637;28;20032;-80
2022/08/21 08:33:26;;;;;;;10.60;3.00;;;24.50;56.60;;;;;;5071551;28;20029;-79
2022/08/21 08:35:52;;;;;;;10.63;3.15;;;24.50;56.20;;;;;;5069686;28;20111;-80
2022/08/21 08:38:20;;;;;;;11.60;3.08;;;24.50;56.10;;;;;;5071694;28;20025;-80
2022/08/21 08:40:55;;;;;;;12.02;3.30;;;24.40;55.70;;;;;;5070604;28;20021;-81
2022/08/21 08:43:21;;;;;;;13.88;3.25;;;24.50;55.00;;;;;;5071767;28;20116;-80
2022/08/21 08:45:50;;;;;;;13.00;3.25;;;24.40;54.30;;;;;;5070500;28;20538;-81
2022/08/21 08:48:42;;;;;;;11.40;2.80;;;24.40;53.30;;;;;;5071620;28;20027;-81
2022/08/21 08:51:26;;;;;;;11.50;2.53;;;24.30;54.20;;;;;;5070299;28;20037;-80
2022/08/21 08:54:02;;;;;;;10.07;2.70;;;24.40;54.10;;;;;;5070254;28;20032;-80
2022/08/21 08:56:32;;;;;;;7.95;2.50;;;24.40;54.20;;;;;;5069741;28;20481;-79
2022/08/21 08:59:11;;;;;;;;;;;24.40;54.20;;;;;;5072098;28;20519;-80
2022/08/21 09:01:37;;;;;;;8.95;2.85;;;24.40;54.00;;;;;;5071558;28;19912;-80
2022/08/21 09:04:03;;;;;;;6.90;2.17;;;24.40;53.60;;;;;;5071548;28;20028;-80
2022/08/21 09:06:58;;;;;;;8.18;2.38;;;24.40;53.60;;;;;;5070379;28;20115;-79
2022/08/21 09:09:39;;;;;;;10.20;2.40;;;24.40;53.50;;;;;;5053711;28;20035;-80
2022/08/21 09:12:16;;;;;;;4.93;1.88;;;24.40;53.20;;;;;;5053676;28;20373;-80
2022/08/21 09:15:00;;;;;;;10.60;2.40;;;24.40;53.20;;;;;;5071284;28;20028;-79
2022/08/21 09:17:47;;;;;;;8.55;2.10;;;24.40;53.50;;;;;;5070795;28;20035;-79
2022/08/21 09:20:27;;;;;;;8.45;2.25;;;24.30;53.70;;;;;;5071321;28;20029;-78
2022/08/21 09:23:07;;;;;;;;;;;24.30;53.60;;;;;;5072333;28;20028;-80
2022/08/21 09:25:51;;;;;;;7.90;1.90;;;24.30;53.60;;;;;;5056618;28;19912;-79
2022/08/21 09:28:17;;;;;;;6.25;1.92;;;24.30;53.60;;;;;;5075073;28;20111;-81
2022/08/21 09:30:43;;;;;;;9.35;2.35;;;24.30;53.60;;;;;;5075027;28;20561;-81
2022/08/21 09:33:12;;;;;;;10.85;2.45;;;24.30;53.60;;;;;;5073688;28;20510;-80
2022/08/21 09:35:53;;;;;;;7.72;1.90;;;24.30;53.30;;;;;;5056060;28;20408;-79
2022/08/21 09:38:34;;;;;;;9.52;2.25;;;24.30;53.30;;;;;;5073653;28;20029;-79
2022/08/21 09:41:06;;;;;;;6.93;1.95;;;24.30;53.20;;;;;;5073542;28;20030;-79
2022/08/21 09:43:33;;;;;;;8.45;1.98;;;24.30;53.20;;;;;;5074743;28;20029;-80
2022/08/21 09:46:23;;;;;;;6.75;2.10;;;24.30;53.10;;;;;;5055854;28;20032;-80
2022/08/21 09:48:56;;;;;;;12.20;2.40;;;24.30;53.00;;;;;;5074586;28;20035;-79
2022/08/21 09:51:51;;;;;;;7.05;2.30;;;24.30;53.20;;;;;;5074484;28;20036;-79
2022/08/21 09:54:21;;;;;;;13.38;2.15;;;24.30;53.10;;;;;;5056528;28;20523;-80
2022/08/21 09:59:37;;;;;;;9.25;2.10;;;24.40;52.90;;;;;;5074559;28;20503;-80
2022/08/21 10:02:32;;;;;;;12.63;2.25;;;24.30;52.90;;;;;;5056672;28;20028;-80
2022/08/21 10:05:07;;;;;;;7.30;1.90;;;24.30;52.70;;;;;;5074149;28;20024;-78
2022/08/21 10:07:36;;;;;;;9.30;1.92;;;24.30;52.70;;;;;;5073341;28;20048;-80
2022/08/21 10:10:05;;;;;;;;;;;24.40;52.70;;;;;;5074716;28;20476;-80
2022/08/21 10:13:01;;;;;;;5.93;1.75;;;24.40;52.70;;;;;;5074030;28;19931;-80
2022/08/21 10:15:52;;;;;;;7.03;2.40;;;24.40;52.40;;;;;;5073295;28;20075;-81
2022/08/21 10:18:26;;;;;;;6.28;2.25;;;24.40;52.20;;;;;;5056408;28;20393;-80
2022/08/21 10:21:13;;;;;;;6.07;2.15;;;24.40;51.80;;;;;;5074011;28;20037;-80
2022/08/21 10:23:58;;;;;;;6.22;2.35;;;24.40;52.10;;;;;;5074212;28;20024;-80
2022/08/21 10:26:35;;;;;;;7.75;2.35;;;24.40;51.80;;;;;;5055720;28;20453;-80
2022/08/21 10:29:27;;;;;;;7.40;2.40;;;24.40;51.70;;;;;;5073936;28;20025;-81
2022/08/21 10:32:14;;;;;;;7.93;2.67;;;24.40;51.80;;;;;;5073658;28;20469;-79
2022/08/21 10:34:48;;;;;;;10.60;2.70;;;24.40;51.50;;;;;;5071450;28;20037;-80
2022/08/21 10:37:36;;;;;;;6.80;2.50;;;24.40;51.70;;;;;;5072915;28;20025;-81
2022/08/21 10:40:14;;;;;;;9.63;2.40;;;24.40;51.90;;;;;;5072564;28;20032;-80
2022/08/21 10:42:58;;;;;;;7.88;2.67;;;24.40;51.90;;;;;;5072516;28;20033;-80
2022/08/21 10:45:51;;;;;;;8.65;2.50;;;24.40;51.30;;;;;;5071718;28;20115;-80
2022/08/21 10:48:36;;;;;;;7.93;2.15;;;24.50;50.50;;;;;;5072443;28;20028;-80
2022/08/21 10:51:45;;;;;;;11.00;2.63;;;24.40;50.50;;;;;;5072767;28;20119;-80
2022/08/21 10:54:32;;;;;;;7.32;2.50;;;24.40;50.90;;;;;;5042051;28;20051;-80
2022/08/21 10:57:03;;;;;;;8.25;1.98;;;24.40;50.80;;;;;;5072485;28;20115;-79
2022/08/21 10:59:55;;;;;;;5.68;1.90;;;24.40;50.70;;;;;;5073361;28;20032;-79
2022/08/21 11:02:36;;;;;;;5.93;2.00;;;24.40;50.30;;;;;;5073252;28;20085;-79
2022/08/21 11:05:10;;;;;;;8.27;1.75;;;24.40;50.80;;;;;;5071922;28;20051;-80
2022/08/21 11:07:45;;;;;;;7.32;1.83;;;24.40;50.40;;;;;;5073096;28;20064;-80
2022/08/21 11:10:22;;;;;;;5.85;1.92;;;24.40;50.30;;;;;;5073200;28;20024;-79
2022/08/21 11:12:54;;;;;;;5.18;1.90;;;24.40;50.20;;;;;;5073220;28;20103;-80
2022/08/21 11:15:31;;;;;;;5.60;1.90;;;24.50;50.00;;;;;;5071064;28;20460;-81
2022/08/21 11:18:15;;;;;;;6.18;2.20;;;24.50;50.00;;;;;;5072531;28;20488;-81
2022/08/21 11:20:50;;;;;;;5.60;1.95;;;24.40;49.60;;;;;;5071571;28;20405;-81
2022/08/21 11:23:19;;;;;;;8.90;2.00;;;24.40;48.30;;;;;;5072767;28;20533;-80
2022/08/21 11:25:50;;;;;;;9.10;2.10;;;24.40;47.60;;;;;;5070588;28;20102;-80
2022/08/21 11:28:28;;;;;;;6.65;1.70;;;24.50;49.10;;;;;;5071481;28;20081;-75
2022/08/21 11:31:12;;;;;;;4.03;1.70;;;24.50;48.50;;;;;;5072943;28;20032;-74
2022/08/21 11:33:46;;;;;;;47.45;27.85;;;24.50;48.60;;;;;;5071188;28;20036;-75
2022/08/21 11:36:25;;;;;;;47.33;33.40;;;24.40;46.90;;;;;;5071739;28;20028;-74
2022/08/21 11:39:13;;;;;;;32.35;24.10;;;24.40;47.50;;;;;;5072470;28;20025;-74
2022/08/21 11:41:54;;;;;;;20.23;11.77;;;24.40;46.70;;;;;;5072440;28;20078;-74
2022/08/21 11:44:27;;;;;;;20.35;9.85;;;24.40;47.10;;;;;;5071241;28;20033;-74
2022/08/21 11:47:20;;;;;;;17.20;8.85;;;24.30;47.40;;;;;;5071392;28;20503;-72
2022/08/21 11:50:07;;;;;;;13.35;7.22;;;24.40;48.10;;;;;;5071052;28;20074;-72
2022/08/21 11:52:45;;;;;;;21.25;6.63;;;24.50;47.90;;;;;;5072159;28;20028;-72
2022/08/21 11:55:28;;;;;;;12.68;4.68;;;24.50;47.80;;;;;;5071378;28;20447;-72
2022/08/21 11:58:23;;;;;;;10.05;4.38;;;24.60;48.80;;;;;;5072175;28;20028;-72
2022/08/21 12:01:03;;;;;;;11.43;3.72;;;24.50;47.60;;;;;;5070961;28;20020;-80
2022/08/21 12:03:33;;;;;;;16.27;4.60;;;24.50;47.80;;;;;;5071995;28;20093;-76
2022/08/21 12:06:10;;;;;;;10.55;4.40;;;24.50;48.80;;;;;;5071826;28;20848;-76
2022/08/21 12:08:58;;;;;;;23.48;5.38;;;24.60;49.20;;;;;;5071776;28;20181;-76
2022/08/21 12:11:25;;;;;;;18.52;5.82;;;24.60;50.00;;;;;;5071876;28;20094;-76
2022/08/21 12:14:06;;;;;;;14.73;4.72;;;24.60;50.40;;;;;;5071659;28;20035;-76
2022/08/21 12:16:35;;;;;;;18.80;5.10;;;24.60;50.60;;;;;;5071329;28;20048;-76
2022/08/21 12:19:14;;;;;;;13.13;4.38;;;24.60;50.50;;;;;;5071846;28;20435;-76
2022/08/21 12:22:05;;;;;;;16.20;4.53;;;24.60;50.60;;;;;;5071977;28;20020;-76
2022/08/21 12:24:45;;;;;;;11.45;4.40;;;24.60;50.80;;;;;;5063132;28;20413;-77
2022/08/21 12:27:19;;;;;;;11.95;4.25;;;24.60;50.70;;;;;;5071202;28;20029;-76
2022/08/21 12:29:51;;;;;;;16.90;4.47;;;24.50;50.90;;;;;;5071856;28;20358;-76
2022/08/21 12:32:37;;;;;;;13.10;4.35;;;24.60;51.00;;;;;;5071725;28;20078;-76
2022/08/21 12:35:09;;;;;;;10.10;4.13;;;24.60;51.10;;;;;;5081899;22;20052;-73
2022/08/21 12:37:39;;;;;;;7.78;4.07;;;24.60;51.20;;;;;;5069879;28;20028;-74
2022/08/21 12:40:16;;;;;;;9.48;3.85;;;24.60;51.30;;;;;;5071110;28;20381;-74
2022/08/21 12:42:49;;;;;;;7.85;3.40;;;24.60;51.20;;;;;;5071613;28;20050;-74
2022/08/21 12:45:39;;;;;;;5.80;3.00;;;24.60;51.30;;;;;;5071027;28;20020;-74
2022/08/21 12:48:32;;;;;;;8.82;3.75;;;24.60;51.30;;;;;;5070349;28;20029;-74
2022/08/21 12:51:11;;;;;;;11.10;3.67;;;24.60;51.50;;;;;;5070759;28;20031;-74
2022/08/21 12:53:49;;;;;;;11.27;3.70;;;24.60;51.60;;;;;;5071423;28;20021;-73
2022/08/21 12:56:19;;;;;;;9.63;3.55;;;24.60;51.70;;;;;;5070820;28;20281;-74
2022/08/21 12:58:46;;;;;;;;;;;24.60;51.70;;;;;;5074154;28;20024;-74
2022/08/21 13:01:35;;;;;;;7.80;3.03;;;24.60;51.60;;;;;;5075448;28;19908;-74
2022/08/21 13:04:11;;;;;;;8.00;3.50;;;24.60;51.80;;;;;;5075343;28;20036;-74
2022/08/21 13:06:44;;;;;;;6.80;3.13;;;24.60;51.80;;;;;;5073498;28;20097;-74